Time;durP1;ratioP1;P1;durP2;ratioP2;P2;SDS_P1;SDS_P2;PMS_P1;PMS_P2;Temp;Humidity;BMP_temperature;BMP_pressure;BME280_temperature;BME280_humidity;BME280_pressure;Samples;Min_cycle;Max_cycle;Signal;HPM_P1;HPM_P2
2022/01/05 00:01:20;;;;;;;19.92;11.10;;;8.90;78.10;;;;;;5093186;28;20040;-23
2022/01/05 00:03:46;;;;;;;22.60;13.70;;;8.90;78.10;;;;;;5093019;28;20130;-23
2022/01/05 00:06:12;;;;;;;21.65;13.15;;;8.90;78.10;;;;;;5093270;28;20365;-22
2022/01/05 00:08:38;;;;;;;28.55;17.77;;;9.00;78.10;;;;;;5092877;28;20487;-23
2022/01/05 00:11:05;;;;;;;21.23;12.02;;;8.90;78.10;;;;;;5093379;28;20025;-22
2022/01/05 00:13:31;;;;;;;22.48;13.75;;;9.00;78.10;;;;;;5092953;28;20032;-23
2022/01/05 00:15:56;;;;;;;21.20;11.80;;;9.00;78.00;;;;;;5093008;28;20027;-23
2022/01/05 00:18:22;;;;;;;20.35;12.32;;;8.90;78.00;;;;;;5092739;28;20042;-23
2022/01/05 00:20:49;;;;;;;26.73;15.25;;;8.90;78.00;;;;;;5093273;28;20066;-22
2022/01/05 00:23:14;;;;;;;19.75;12.82;;;8.90;78.00;;;;;;5092976;28;20024;-23
2022/01/05 00:25:40;;;;;;;25.85;14.82;;;8.90;78.00;;;;;;5092846;28;20028;-23
2022/01/05 00:28:06;;;;;;;33.08;19.48;;;8.90;78.00;;;;;;5093132;28;20023;-23
2022/01/05 00:30:32;;;;;;;23.95;13.73;;;8.90;78.00;;;;;;5092574;28;20384;-23
2022/01/05 00:32:58;;;;;;;21.52;12.05;;;8.90;78.00;;;;;;5092854;28;20472;-21
2022/01/05 00:35:24;;;;;;;20.70;11.30;;;8.90;78.00;;;;;;5093116;28;20031;-20
2022/01/05 00:37:50;;;;;;;18.33;10.70;;;8.90;78.00;;;;;;5093075;28;20434;-21
2022/01/05 00:40:16;;;;;;;20.20;12.90;;;8.90;77.90;;;;;;5092874;28;20039;-21
2022/01/05 00:42:41;;;;;;;18.30;11.25;;;8.90;77.90;;;;;;5093316;28;20040;-21
2022/01/05 00:45:08;;;;;;;18.75;10.95;;;8.90;77.90;;;;;;5091702;28;20052;-21
2022/01/05 00:47:33;;;;;;;22.83;13.23;;;8.90;77.90;;;;;;5093025;28;20024;-21
2022/01/05 00:49:59;;;;;;;20.70;12.50;;;9.00;77.90;;;;;;5093010;28;20100;-21
2022/01/05 00:52:25;;;;;;;30.15;16.92;;;8.90;77.90;;;;;;5095917;28;20543;-21
2022/01/05 00:54:51;;;;;;;15.82;9.82;;;8.90;77.90;;;;;;5096355;28;20027;-21
2022/01/05 00:57:17;;;;;;;17.40;9.60;;;8.90;77.80;;;;;;5096639;28;20033;-21
2022/01/05 00:59:49;;;;;;;19.10;11.13;;;8.90;77.80;;;;;;5096239;28;20499;-21
2022/01/05 01:02:15;;;;;;;24.92;15.32;;;9.00;77.80;;;;;;5096456;28;20028;-21
2022/01/05 01:04:40;;;;;;;20.17;12.52;;;8.90;77.80;;;;;;5075917;28;20439;-20
2022/01/05 01:07:06;;;;;;;22.52;13.50;;;8.90;77.80;;;;;;5076314;28;20067;-21
2022/01/05 01:09:32;;;;;;;26.88;16.65;;;8.90;77.80;;;;;;5076164;28;20032;-20
2022/01/05 01:11:58;;;;;;;27.17;16.08;;;8.90;77.80;;;;;;5075939;28;20120;-21
2022/01/05 01:14:24;;;;;;;21.38;12.63;;;8.90;77.80;;;;;;5074268;28;20025;-20
2022/01/05 01:16:50;;;;;;;25.20;15.05;;;8.90;77.80;;;;;;5075950;28;20036;-21
2022/01/05 01:19:16;;;;;;;21.17;12.68;;;8.90;77.90;;;;;;5076054;28;20374;-21
2022/01/05 01:21:42;;;;;;;26.88;14.75;;;8.90;77.90;;;;;;5075947;28;20063;-21
2022/01/05 01:24:07;;;;;;;29.45;17.70;;;8.90;77.90;;;;;;5074320;28;20029;-20
2022/01/05 01:26:33;;;;;;;26.38;15.85;;;8.90;77.90;;;;;;5075377;28;20025;-21
2022/01/05 01:29:00;;;;;;;25.50;15.48;;;8.90;77.90;;;;;;5075712;28;20028;-20
2022/01/05 01:31:28;;;;;;;43.40;27.13;;;8.90;77.80;;;;;;5075770;28;20017;-21
2022/01/05 01:33:54;;;;;;;33.25;18.33;;;8.90;77.90;;;;;;5075494;28;20028;-20
2022/01/05 01:36:21;;;;;;;23.88;14.82;;;8.80;77.90;;;;;;5075489;28;20037;-21
2022/01/05 01:38:48;;;;;;;20.55;12.32;;;8.80;77.90;;;;;;5075247;28;20039;-21
2022/01/05 01:41:14;;;;;;;22.00;11.85;;;8.80;77.90;;;;;;5075264;28;20612;-21
2022/01/05 01:43:40;;;;;;;17.92;10.48;;;8.80;77.90;;;;;;5075702;28;20499;-20
2022/01/05 01:46:08;;;;;;;20.75;12.13;;;8.80;77.90;;;;;;5075401;28;20024;-21
2022/01/05 01:48:34;;;;;;;22.75;13.48;;;8.90;77.90;;;;;;5074998;28;20109;-21
2022/01/05 01:51:00;;;;;;;30.55;17.25;;;8.90;77.90;;;;;;5075091;28;20056;-21
2022/01/05 01:53:26;;;;;;;27.42;15.48;;;8.90;77.90;;;;;;5075071;28;20028;-21
2022/01/05 01:55:54;;;;;;;52.97;32.42;;;8.90;77.90;;;;;;5075326;28;20032;-20
2022/01/05 01:58:25;;;;;;;35.75;20.75;;;8.80;77.90;;;;;;5074664;28;20032;-20
2022/01/05 02:00:51;;;;;;;38.28;21.92;;;8.80;77.90;;;;;;5074982;28;20051;-20
2022/01/05 02:03:17;;;;;;;29.70;16.77;;;8.80;78.00;;;;;;5083299;28;20040;-21
2022/01/05 02:05:43;;;;;;;24.77;14.95;;;8.80;78.00;;;;;;5095201;28;20024;-21
2022/01/05 02:08:10;;;;;;;22.80;13.32;;;8.70;78.00;;;;;;5095175;28;20024;-20
2022/01/05 02:10:36;;;;;;;30.45;19.40;;;8.70;78.10;;;;;;5094799;28;20496;-20
2022/01/05 02:13:03;;;;;;;53.20;31.58;;;8.70;78.10;;;;;;5094881;28;20047;-21
2022/01/05 02:15:32;;;;;;;23.33;13.98;;;8.70;78.10;;;;;;5094760;28;20024;-21
2022/01/05 02:20:33;;;;;;;26.40;14.93;;;8.70;78.10;;;;;;5094654;28;20028;-21
2022/01/05 02:23:00;;;;;;;25.85;14.88;;;8.70;78.20;;;;;;5095101;28;20380;-21
2022/01/05 02:25:27;;;;;;;31.13;17.38;;;8.70;78.10;;;;;;5094616;28;20437;-21
2022/01/05 02:27:55;;;;;;;51.63;31.42;;;8.70;78.20;;;;;;5095362;28;20035;-21
2022/01/05 02:30:23;;;;;;;24.15;15.57;;;8.70;78.50;;;;;;5094363;28;20024;-21
2022/01/05 02:32:49;;;;;;;29.67;18.25;;;8.70;78.30;;;;;;5094833;28;20158;-21
2022/01/05 02:35:16;;;;;;;24.23;14.75;;;8.70;78.30;;;;;;5094830;28;20024;-21
2022/01/05 02:37:45;;;;;;;24.90;14.40;;;8.70;78.30;;;;;;5094338;28;20114;-21
2022/01/05 02:40:14;;;;;;;61.90;36.50;;;8.70;78.20;;;;;;5094682;28;20020;-21
2022/01/05 02:42:41;;;;;;;35.38;20.90;;;8.70;78.30;;;;;;5094653;28;20026;-21
2022/01/05 02:45:09;;;;;;;38.97;21.33;;;8.70;78.40;;;;;;5094185;28;20077;-21
2022/01/05 02:47:36;;;;;;;33.65;20.95;;;8.60;78.40;;;;;;5094196;28;20115;-21
2022/01/05 02:50:05;;;;;;;30.33;19.10;;;8.60;78.40;;;;;;5094278;28;20062;-21
2022/01/05 02:52:32;;;;;;;17.90;11.15;;;8.70;78.40;;;;;;5093948;28;20062;-21
2022/01/05 02:54:59;;;;;;;18.13;9.55;;;8.60;78.40;;;;;;5094662;28;20028;-21
2022/01/05 02:57:25;;;;;;;19.10;11.75;;;8.70;78.40;;;;;;5094024;28;20032;-21
2022/01/05 02:59:54;;;;;;;22.52;14.52;;;8.70;78.30;;;;;;5093849;28;20427;-21
2022/01/05 03:02:20;;;;;;;17.67;11.05;;;8.70;78.30;;;;;;5093518;28;20035;-21
2022/01/05 03:04:47;;;;;;;40.55;24.77;;;8.70;78.20;;;;;;5094836;28;20063;-21
2022/01/05 03:07:15;;;;;;;26.08;14.32;;;8.80;78.20;;;;;;5093888;28;20028;-21
2022/01/05 03:09:41;;;;;;;49.33;30.02;;;8.80;78.20;;;;;;5093816;28;20114;-22
2022/01/05 03:12:07;;;;;;;26.15;16.02;;;8.80;78.20;;;;;;5093774;28;20103;-21
2022/01/05 03:14:34;;;;;;;33.80;20.23;;;8.80;78.20;;;;;;5092828;28;20028;-21
2022/01/05 03:17:00;;;;;;;47.38;27.17;;;8.80;78.20;;;;;;5093628;28;20488;-21
2022/01/05 03:19:26;;;;;;;27.83;16.02;;;8.80;78.30;;;;;;5093725;28;20039;-21
2022/01/05 03:21:52;;;;;;;47.70;28.45;;;8.80;78.20;;;;;;5093948;28;20020;-20
2022/01/05 03:24:18;;;;;;;50.22;30.00;;;8.80;78.20;;;;;;5093756;28;20032;-21
2022/01/05 03:26:44;;;;;;;29.13;17.23;;;8.80;78.40;;;;;;5093770;28;20043;-21
2022/01/05 03:29:10;;;;;;;31.05;17.80;;;8.70;78.30;;;;;;5093519;28;20375;-21
2022/01/05 03:31:36;;;;;;;24.50;13.88;;;8.80;78.20;;;;;;5093809;28;20169;-21
2022/01/05 03:34:04;;;;;;;24.98;14.40;;;8.70;78.20;;;;;;5093649;28;20566;-21
2022/01/05 03:36:30;;;;;;;30.02;18.55;;;8.70;78.30;;;;;;5093229;28;20057;-21
2022/01/05 03:38:56;;;;;;;25.67;16.38;;;8.70;78.30;;;;;;5093598;28;20020;-21
2022/01/05 03:41:22;;;;;;;26.48;15.57;;;8.70;78.40;;;;;;5091940;28;20594;-20
2022/01/05 03:43:48;;;;;;;43.58;26.15;;;8.70;78.30;;;;;;5093562;28;20051;-21
2022/01/05 03:46:14;;;;;;;31.48;18.48;;;8.70;78.50;;;;;;5093108;28;20031;-21
2022/01/05 03:48:41;;;;;;;27.55;16.98;;;8.70;78.40;;;;;;5093267;28;20375;-21
2022/01/05 03:51:07;;;;;;;31.92;19.40;;;8.70;78.40;;;;;;5093560;28;20024;-20
2022/01/05 03:53:33;;;;;;;33.25;20.23;;;8.70;78.40;;;;;;5093402;28;20036;-21
2022/01/05 03:55:59;;;;;;;40.58;23.50;;;8.70;78.60;;;;;;5093343;28;20028;-23
2022/01/05 03:58:25;;;;;;;53.78;32.03;;;8.70;78.60;;;;;;5092875;28;20368;-23
2022/01/05 04:00:51;;;;;;;40.72;24.17;;;8.60;78.60;;;;;;5093149;28;20034;-23
2022/01/05 04:03:18;;;;;;;42.60;27.98;;;8.70;78.80;;;;;;5075259;28;20483;-23
2022/01/05 04:05:44;;;;;;;47.65;27.70;;;8.60;78.90;;;;;;5093105;28;20027;-23
2022/01/05 04:08:11;;;;;;;46.47;26.67;;;8.60;79.00;;;;;;5093070;28;20579;-23
2022/01/05 04:10:38;;;;;;;32.72;19.17;;;8.60;79.10;;;;;;5093135;28;20024;-23
2022/01/05 04:13:04;;;;;;;31.00;17.02;;;8.60;79.10;;;;;;5093335;28;20024;-23
2022/01/05 04:15:30;;;;;;;27.88;16.88;;;8.60;78.90;;;;;;5093271;28;20081;-22
2022/01/05 04:18:01;;;;;;;28.02;17.65;;;8.70;78.90;;;;;;5092938;28;20388;-23
2022/01/05 04:20:27;;;;;;;34.25;19.88;;;8.70;78.70;;;;;;5092738;28;20070;-22
2022/01/05 04:22:53;;;;;;;25.88;14.00;;;8.70;78.80;;;;;;5091762;28;20051;-22
2022/01/05 04:25:19;;;;;;;32.10;19.40;;;8.70;78.70;;;;;;5091918;28;20080;-20
2022/01/05 04:27:45;;;;;;;31.40;19.13;;;8.70;78.90;;;;;;5096937;28;20013;-20
2022/01/05 04:30:12;;;;;;;24.02;12.27;;;8.60;79.10;;;;;;5096826;28;20107;-20
2022/01/05 04:32:39;;;;;;;20.90;12.48;;;8.60;78.90;;;;;;5097186;28;20036;-20
2022/01/05 04:35:05;;;;;;;33.00;19.30;;;8.60;78.90;;;;;;5097101;28;20028;-21
2022/01/05 04:37:32;;;;;;;24.45;14.93;;;8.60;79.00;;;;;;5096693;28;20028;-20
2022/01/05 04:39:59;;;;;;;29.98;17.63;;;8.70;79.20;;;;;;5097038;28;20040;-20
2022/01/05 04:42:26;;;;;;;32.45;19.67;;;8.60;79.00;;;;;;5096472;28;20016;-21
2022/01/05 04:44:54;;;;;;;25.30;14.77;;;8.60;79.20;;;;;;5095671;28;20177;-21
2022/01/05 04:47:20;;;;;;;22.88;13.00;;;8.60;79.20;;;;;;5096779;28;20472;-21
2022/01/05 04:49:46;;;;;;;21.40;11.05;;;8.60;79.10;;;;;;5096805;28;20463;-21
2022/01/05 04:52:12;;;;;;;21.15;13.35;;;8.60;79.10;;;;;;5096401;28;20111;-20
2022/01/05 04:54:38;;;;;;;23.70;13.40;;;8.60;79.00;;;;;;5096263;28;20103;-20
2022/01/05 04:57:05;;;;;;;27.67;16.40;;;8.60;79.20;;;;;;5096723;28;20022;-20
2022/01/05 04:59:32;;;;;;;29.60;17.85;;;8.60;79.20;;;;;;5096239;28;20036;-21
2022/01/05 05:01:58;;;;;;;30.02;18.33;;;8.60;79.20;;;;;;5096590;28;20032;-22
2022/01/05 05:04:24;;;;;;;28.95;16.65;;;8.60;79.20;;;;;;5095895;28;20127;-22
2022/01/05 05:06:50;;;;;;;17.80;9.95;;;8.60;79.20;;;;;;5096170;28;20612;-22
2022/01/05 05:09:17;;;;;;;29.23;17.00;;;8.60;79.10;;;;;;5096128;28;20020;-21
2022/01/05 05:11:43;;;;;;;35.88;19.70;;;8.60;79.20;;;;;;5096458;28;20032;-20
2022/01/05 05:14:09;;;;;;;24.45;13.88;;;8.60;79.20;;;;;;5096506;28;20036;-19
2022/01/05 05:16:36;;;;;;;16.58;9.05;;;8.60;79.20;;;;;;5096107;28;20031;-19
2022/01/05 05:19:02;;;;;;;16.05;9.23;;;8.60;79.10;;;;;;5096217;28;20169;-19
2022/01/05 05:21:27;;;;;;;18.25;11.48;;;8.60;79.10;;;;;;5096823;28;20060;-19
2022/01/05 05:23:53;;;;;;;37.13;20.88;;;8.70;79.20;;;;;;5096072;28;20035;-19
2022/01/05 05:26:19;;;;;;;23.92;13.98;;;8.70;79.30;;;;;;5095991;28;20030;-19
2022/01/05 05:28:45;;;;;;;40.95;24.83;;;8.70;79.20;;;;;;5095666;28;20115;-18
2022/01/05 05:31:11;;;;;;;41.58;24.05;;;8.70;79.20;;;;;;5096042;28;20034;-18
2022/01/05 05:33:36;;;;;;;34.53;22.77;;;8.70;79.40;;;;;;5096044;28;20430;-18
2022/01/05 05:36:02;;;;;;;22.00;12.75;;;8.70;79.50;;;;;;5095482;28;20071;-18
2022/01/05 05:38:29;;;;;;;28.00;17.48;;;8.70;79.40;;;;;;5093850;28;20460;-19
2022/01/05 05:40:55;;;;;;;17.20;10.10;;;8.70;79.50;;;;;;5094369;28;20031;-18
2022/01/05 05:43:21;;;;;;;18.33;10.50;;;8.60;79.60;;;;;;5095483;28;20442;-21
2022/01/05 05:45:47;;;;;;;19.52;10.85;;;8.70;79.70;;;;;;5095386;28;20020;-21
2022/01/05 05:48:13;;;;;;;18.85;11.02;;;8.70;79.90;;;;;;5095724;28;20032;-18
2022/01/05 05:50:39;;;;;;;19.98;11.40;;;8.70;79.90;;;;;;5095317;28;20032;-18
2022/01/05 05:53:05;;;;;;;19.02;11.73;;;8.70;79.90;;;;;;5095573;28;20026;-18
2022/01/05 05:55:31;;;;;;;14.45;7.63;;;8.70;79.80;;;;;;5095526;28;20073;-18
2022/01/05 05:57:57;;;;;;;24.65;14.98;;;8.70;79.70;;;;;;5093924;28;20073;-18
2022/01/05 06:00:22;;;;;;;17.42;11.55;;;8.70;79.70;;;;;;5093700;28;20046;-18
2022/01/05 06:02:49;;;;;;;29.83;18.88;;;8.70;79.60;;;;;;5095124;28;20040;-18
2022/01/05 06:05:15;;;;;;;28.30;18.38;;;8.70;79.80;;;;;;5095641;28;20055;-18
2022/01/05 06:07:40;;;;;;;23.30;14.02;;;8.60;79.80;;;;;;5095031;28;20050;-18
2022/01/05 06:10:09;;;;;;;18.02;11.32;;;8.70;79.80;;;;;;5095289;28;20016;-18
2022/01/05 06:12:35;;;;;;;18.25;9.65;;;8.70;79.80;;;;;;5095024;28;20028;-18
2022/01/05 06:15:01;;;;;;;14.00;8.52;;;8.60;79.70;;;;;;5095247;28;20586;-18
2022/01/05 06:17:27;;;;;;;14.02;8.13;;;8.70;79.50;;;;;;5095027;28;20061;-18
2022/01/05 06:19:53;;;;;;;20.00;10.65;;;8.70;79.40;;;;;;5094798;28;20032;-18
2022/01/05 06:22:20;;;;;;;19.08;10.57;;;8.70;79.40;;;;;;5094630;28;20023;-18
2022/01/05 06:24:46;;;;;;;24.63;14.02;;;8.70;79.40;;;;;;5094689;28;20024;-18
2022/01/05 06:27:12;;;;;;;19.35;11.07;;;8.70;79.40;;;;;;5094647;28;20124;-18
2022/01/05 06:29:39;;;;;;;17.15;10.65;;;8.60;79.50;;;;;;5094857;28;20059;-18
2022/01/05 06:32:06;;;;;;;18.65;10.63;;;8.60;79.30;;;;;;5094525;28;20429;-18
2022/01/05 06:34:32;;;;;;;15.52;9.50;;;8.60;79.40;;;;;;5094883;28;20020;-18
2022/01/05 06:36:58;;;;;;;16.90;9.68;;;8.60;79.40;;;;;;5094450;28;20035;-18
2022/01/05 06:39:24;;;;;;;15.63;8.20;;;8.60;79.40;;;;;;5094302;28;20028;-18
2022/01/05 06:41:50;;;;;;;30.52;18.80;;;8.70;79.40;;;;;;5094308;28;20032;-18
2022/01/05 06:44:15;;;;;;;20.40;11.95;;;8.60;79.50;;;;;;5093154;28;20024;-18
2022/01/05 06:46:41;;;;;;;23.55;13.77;;;8.60;79.70;;;;;;5094218;28;20050;-19
2022/01/05 06:49:07;;;;;;;35.42;20.52;;;8.60;79.60;;;;;;5094031;28;20078;-18
2022/01/05 06:51:33;;;;;;;24.88;13.32;;;8.60;80.20;;;;;;5094492;28;20035;-18
2022/01/05 06:53:59;;;;;;;20.83;12.35;;;8.50;80.00;;;;;;5094141;28;20463;-18
2022/01/05 06:56:25;;;;;;;24.50;14.85;;;8.60;80.00;;;;;;5094200;28;20031;-18
2022/01/05 06:58:50;;;;;;;17.63;10.43;;;8.60;80.20;;;;;;5094195;28;20043;-18
2022/01/05 07:01:17;;;;;;;31.10;17.77;;;8.60;80.00;;;;;;5093971;28;20396;-18
2022/01/05 07:03:42;;;;;;;20.80;12.90;;;8.60;80.10;;;;;;5093649;28;20385;-18
2022/01/05 07:06:08;;;;;;;18.45;10.43;;;8.50;80.20;;;;;;5093955;28;20034;-18
2022/01/05 07:08:34;;;;;;;24.17;13.20;;;8.50;80.30;;;;;;5093633;28;20026;-21
2022/01/05 07:11:00;;;;;;;22.52;12.98;;;8.60;80.50;;;;;;5094072;28;20077;-18
2022/01/05 07:13:26;;;;;;;16.25;8.07;;;8.50;80.30;;;;;;5093780;28;20411;-18
2022/01/05 07:15:51;;;;;;;19.38;11.00;;;8.50;80.20;;;;;;5093639;28;20104;-20
2022/01/05 07:18:17;;;;;;;14.90;9.52;;;8.60;80.40;;;;;;5093545;28;20024;-18
2022/01/05 07:20:45;;;;;;;25.20;14.45;;;8.60;80.30;;;;;;5092667;28;20047;-18
2022/01/05 07:23:11;;;;;;;20.52;12.32;;;8.60;80.50;;;;;;5094164;28;20055;-18
2022/01/05 07:25:37;;;;;;;19.42;10.50;;;8.70;80.60;;;;;;5093887;28;20024;-18
2022/01/05 07:28:05;;;;;;;20.88;12.45;;;8.70;80.40;;;;;;5093831;28;20399;-18
2022/01/05 07:30:31;;;;;;;22.25;12.90;;;8.70;80.30;;;;;;5092221;28;20012;-18
2022/01/05 07:32:57;;;;;;;14.77;8.35;;;8.70;80.40;;;;;;5093834;28;20024;-18
2022/01/05 07:35:23;;;;;;;18.15;10.68;;;8.70;80.30;;;;;;5093817;28;20032;-18
2022/01/05 07:37:48;;;;;;;18.65;11.02;;;8.70;80.40;;;;;;5093398;28;20082;-19
2022/01/05 07:40:14;;;;;;;15.73;9.30;;;8.70;80.30;;;;;;5093544;28;20059;-18
2022/01/05 07:42:41;;;;;;;24.80;15.18;;;8.80;80.20;;;;;;5093705;28;20506;-18
2022/01/05 07:45:09;;;;;;;35.65;17.50;;;8.80;80.70;;;;;;5093304;28;20020;-18
2022/01/05 07:47:35;;;;;;;34.08;17.08;;;8.80;80.50;;;;;;5093342;28;20024;-19
2022/01/05 07:50:02;;;;;;;19.10;10.57;;;8.80;80.50;;;;;;5093596;28;20074;-18
2022/01/05 07:52:29;;;;;;;16.48;9.13;;;8.80;80.40;;;;;;5093101;28;20032;-18
2022/01/05 07:54:55;;;;;;;21.08;11.80;;;8.80;80.50;;;;;;5093293;28;20032;-18
2022/01/05 07:57:21;;;;;;;17.90;10.95;;;8.80;80.50;;;;;;5093129;28;20035;-19
2022/01/05 07:59:46;;;;;;;13.65;7.20;;;8.80;80.40;;;;;;5095157;28;20028;-18
2022/01/05 08:02:12;;;;;;;11.75;6.90;;;8.90;80.40;;;;;;5100058;28;20112;-18
2022/01/05 08:04:38;;;;;;;11.73;6.50;;;8.90;80.30;;;;;;5098412;28;20060;-18
2022/01/05 08:07:04;;;;;;;12.88;6.38;;;8.90;80.20;;;;;;5099882;28;20032;-18
2022/01/05 08:09:30;;;;;;;10.70;5.88;;;8.90;80.20;;;;;;5099861;28;20020;-19
2022/01/05 08:11:59;;;;;;;11.68;6.55;;;9.00;80.10;;;;;;5098622;28;20020;-18
2022/01/05 08:14:25;;;;;;;25.27;14.60;;;9.00;80.00;;;;;;5099599;28;20505;-18
2022/01/05 08:16:51;;;;;;;12.57;6.20;;;9.00;80.30;;;;;;5099766;28;20060;-18
2022/01/05 08:19:17;;;;;;;10.15;5.38;;;9.00;80.00;;;;;;5099978;28;20081;-18
2022/01/05 08:21:42;;;;;;;10.35;5.53;;;9.00;80.00;;;;;;5099906;28;20484;-18
2022/01/05 08:24:08;;;;;;;18.15;10.45;;;9.10;80.00;;;;;;5099821;28;20035;-18
2022/01/05 08:26:37;;;;;;;25.77;15.75;;;9.10;79.90;;;;;;5099723;28;20024;-19
2022/01/05 08:29:03;;;;;;;23.00;14.73;;;9.20;80.00;;;;;;5099940;28;20097;-18
2022/01/05 08:31:29;;;;;;;15.20;10.00;;;9.20;80.30;;;;;;5099622;28;20036;-18
2022/01/05 08:33:56;;;;;;;15.05;9.13;;;9.20;80.20;;;;;;5099600;28;20032;-18
2022/01/05 08:36:23;;;;;;;15.48;10.38;;;9.20;80.00;;;;;;5099730;28;20074;-18
2022/01/05 08:38:49;;;;;;;19.85;10.80;;;9.20;80.00;;;;;;5100005;28;20107;-18
2022/01/05 08:41:15;;;;;;;20.90;12.10;;;9.20;80.00;;;;;;5099581;28;20047;-18
2022/01/05 08:43:41;;;;;;;16.42;9.38;;;9.20;80.10;;;;;;5099818;28;20054;-18
2022/01/05 08:46:07;;;;;;;14.13;8.85;;;9.20;80.10;;;;;;5099811;28;20024;-19
2022/01/05 08:48:33;;;;;;;19.10;12.05;;;9.20;80.20;;;;;;5099593;28;20392;-18
2022/01/05 08:50:59;;;;;;;23.55;15.00;;;9.30;80.10;;;;;;5099418;28;20379;-18
2022/01/05 08:53:25;;;;;;;19.67;13.20;;;9.30;80.20;;;;;;5099453;28;20055;-18
2022/01/05 08:55:52;;;;;;;26.80;16.73;;;9.30;80.10;;;;;;5099548;28;20028;-18
2022/01/05 08:58:19;;;;;;;19.95;13.45;;;9.20;80.60;;;;;;5099407;28;20024;-18
2022/01/05 09:00:45;;;;;;;23.83;16.40;;;9.20;80.50;;;;;;5099600;28;20031;-18
2022/01/05 09:03:14;;;;;;;17.40;11.10;;;9.20;80.40;;;;;;5097924;28;20044;-18
2022/01/05 09:05:40;;;;;;;19.95;13.00;;;9.20;80.50;;;;;;5099652;28;20111;-18
2022/01/05 09:08:06;;;;;;;20.95;14.05;;;9.20;80.50;;;;;;5099556;28;20120;-18
2022/01/05 09:10:32;;;;;;;11.85;8.00;;;9.30;80.50;;;;;;5099424;28;20020;-18
2022/01/05 09:12:59;;;;;;;18.15;11.07;;;9.30;80.40;;;;;;5095615;28;20032;-18
2022/01/05 09:15:29;;;;;;;26.60;17.33;;;9.30;80.40;;;;;;5095957;28;20478;-18
2022/01/05 09:17:57;;;;;;;16.63;11.27;;;9.30;80.80;;;;;;5096568;28;20039;-18
2022/01/05 09:20:23;;;;;;;15.73;9.55;;;9.30;80.70;;;;;;5096032;28;20081;-18
2022/01/05 09:22:49;;;;;;;15.45;10.88;;;9.30;80.50;;;;;;5097087;28;20024;-18
2022/01/05 09:25:18;;;;;;;14.13;9.07;;;9.30;80.50;;;;;;5096167;28;20028;-18
2022/01/05 09:28:43;;;;;;;14.88;9.35;;;9.40;80.90;;;;;;5090292;27;20438;-19
2022/01/05 09:31:10;;;;;;;14.10;9.60;;;9.40;80.50;;;;;;5089434;28;20035;-19
2022/01/05 09:33:36;;;;;;;13.45;8.35;;;9.40;80.50;;;;;;5090564;28;20028;-19
2022/01/05 09:36:09;;;;;;;20.00;14.02;;;9.40;80.40;;;;;;5090547;28;20025;-19
2022/01/05 09:41:56;;;;;;;23.27;15.30;;;9.50;80.50;;;;;;5090619;28;20028;-19
2022/01/05 09:44:10;;;;;;;12.95;7.45;;;9.60;80.40;;;;;;5090749;28;20035;-19
2022/01/05 09:47:13;;;;;;;11.35;7.22;;;9.70;80.30;;;;;;5090159;28;20059;-19
2022/01/05 09:49:52;;;;;;;10.05;5.70;;;9.70;80.10;;;;;;5090595;28;20032;-19
2022/01/05 09:52:19;;;;;;;10.57;6.03;;;9.70;80.10;;;;;;5090087;28;20024;-19
2022/01/05 09:54:46;;;;;;;13.80;8.88;;;9.80;79.80;;;;;;5090191;28;20024;-19
2022/01/05 09:57:14;;;;;;;12.98;8.70;;;9.90;80.00;;;;;;5090230;28;20562;-19
2022/01/05 09:59:41;;;;;;;14.13;9.65;;;9.90;79.90;;;;;;5090307;28;20020;-19
2022/01/05 10:02:08;;;;;;;7.35;4.82;;;9.90;79.80;;;;;;5090529;28;20028;-19
2022/01/05 10:04:36;;;;;;;13.55;8.50;;;10.00;79.70;;;;;;5089818;28;20138;-19
2022/01/05 10:07:03;;;;;;;9.93;5.75;;;10.00;79.70;;;;;;5090172;28;20028;-19
2022/01/05 10:09:30;;;;;;;12.10;7.63;;;10.10;79.80;;;;;;5090126;28;20036;-19
2022/01/05 10:11:56;;;;;;;11.45;7.93;;;10.10;79.90;;;;;;5089876;28;20060;-19
2022/01/05 10:14:22;;;;;;;8.32;5.90;;;10.20;79.90;;;;;;5089886;28;20062;-19
2022/01/05 10:17:31;;;;;;;10.65;6.93;;;10.30;79.80;;;;;;5090524;28;20067;-19
2022/01/05 10:24:15;;;;;;;11.63;7.28;;;10.50;79.30;;;;;;5108164;27;20440;-18
2022/01/05 10:26:41;;;;;;;11.35;6.80;;;10.50;79.30;;;;;;5111009;28;20081;-18
2022/01/05 10:29:22;;;;;;;9.77;5.43;;;10.60;79.10;;;;;;5110925;28;20059;-18
2022/01/05 10:31:56;;;;;;;7.80;5.25;;;10.60;79.00;;;;;;5111100;28;20472;-18
2022/01/05 10:34:25;;;;;;;;;;;10.60;78.90;;;;;;5111245;28;20107;-18
2022/01/05 10:36:57;;;;;;;7.78;5.25;;;10.70;79.50;;;;;;5109435;28;19904;-19
2022/01/05 10:39:37;;;;;;;11.80;7.55;;;10.70;79.10;;;;;;5111380;28;20101;-18
2022/01/05 10:42:09;;;;;;;12.65;9.00;;;10.70;79.10;;;;;;5110716;28;20397;-18
2022/01/05 10:44:36;;;;;;;7.35;4.35;;;10.70;79.10;;;;;;5110670;28;20093;-18
2022/01/05 10:47:07;;;;;;;7.28;4.20;;;10.80;79.00;;;;;;5110930;28;20031;-18
2022/01/05 10:49:40;;;;;;;6.45;3.97;;;10.80;78.90;;;;;;5110605;28;20034;-19
2022/01/05 10:52:28;;;;;;;9.70;6.53;;;10.80;78.80;;;;;;5110577;28;20023;-18
2022/01/05 10:55:07;;;;;;;9.65;5.82;;;10.80;79.00;;;;;;5110525;28;20020;-18
2022/01/05 10:57:33;;;;;;;9.35;6.07;;;10.90;79.00;;;;;;5110735;28;20020;-18
2022/01/05 10:59:59;;;;;;;14.63;9.32;;;10.90;79.20;;;;;;5110555;28;20045;-18
2022/01/05 11:02:30;;;;;;;14.32;8.23;;;10.90;79.10;;;;;;5110674;28;20028;-19
2022/01/05 11:05:14;;;;;;;11.38;6.55;;;10.90;79.10;;;;;;5110545;28;20032;-18
2022/01/05 11:07:42;;;;;;;10.00;6.40;;;10.90;79.10;;;;;;5110290;28;20024;-18
2022/01/05 11:10:11;;;;;;;10.32;6.82;;;11.00;79.30;;;;;;5110152;28;20035;-18
2022/01/05 11:12:38;;;;;;;8.68;5.38;;;10.90;79.30;;;;;;5110207;28;20058;-18
2022/01/05 11:15:28;;;;;;;8.35;5.00;;;11.00;79.30;;;;;;5108769;28;20024;-18
2022/01/05 11:18:14;;;;;;;14.73;9.77;;;11.10;79.30;;;;;;5110349;28;20028;-18
2022/01/05 11:21:06;;;;;;;8.48;5.25;;;11.10;79.40;;;;;;5110641;28;20024;-18
2022/01/05 11:23:33;;;;;;;16.00;10.30;;;11.10;79.20;;;;;;5106808;28;20043;-18
2022/01/05 11:26:01;;;;;;;14.43;10.18;;;11.10;79.20;;;;;;5109839;28;20123;-18
2022/01/05 11:28:28;;;;;;;16.30;10.55;;;11.10;79.10;;;;;;5109565;28;20034;-18
2022/01/05 11:30:56;;;;;;;13.25;9.40;;;11.10;79.10;;;;;;5109981;28;20023;-19
2022/01/05 11:33:23;;;;;;;11.75;8.45;;;11.10;79.10;;;;;;5109389;28;20081;-19
2022/01/05 11:35:49;;;;;;;11.20;7.43;;;11.00;79.10;;;;;;5095956;28;20048;-18
2022/01/05 11:38:16;;;;;;;11.20;7.47;;;11.00;79.20;;;;;;5095850;28;20448;-18
2022/01/05 11:40:52;;;;;;;8.98;5.15;;;11.00;79.20;;;;;;5096492;28;20028;-19
2022/01/05 11:43:35;;;;;;;9.10;5.63;;;11.00;79.20;;;;;;5096240;28;20036;-18
2022/01/05 11:46:18;;;;;;;9.25;6.13;;;11.10;79.30;;;;;;5095901;28;20498;-21
2022/01/05 11:49:10;;;;;;;12.63;8.40;;;11.00;79.30;;;;;;5095844;28;20032;-18
2022/01/05 11:51:42;;;;;;;17.80;11.90;;;11.10;79.50;;;;;;5095846;28;20540;-18
2022/01/05 11:54:17;;;;;;;17.58;12.35;;;11.00;79.70;;;;;;5095913;28;20029;-18
2022/01/05 11:57:08;;;;;;;13.00;9.50;;;11.00;80.00;;;;;;5095688;28;20567;-18
2022/01/05 11:59:36;;;;;;;8.52;6.05;;;11.00;80.00;;;;;;5087395;28;20387;-18
2022/01/05 12:02:10;;;;;;;11.48;7.90;;;11.00;79.90;;;;;;5095825;28;20111;-18
2022/01/05 12:05:02;;;;;;;8.57;6.28;;;11.00;79.90;;;;;;5095747;28;20032;-18
2022/01/05 12:07:48;;;;;;;16.40;13.20;;;11.00;80.10;;;;;;5093006;28;20040;-18
2022/01/05 12:10:22;;;;;;;13.73;9.50;;;11.10;80.00;;;;;;5094125;28;20020;-18
2022/01/05 12:12:56;;;;;;;15.95;11.82;;;11.10;80.00;;;;;;5096281;28;20054;-18
2022/01/05 12:15:41;;;;;;;;;;;11.10;80.00;;;;;;5095685;28;20488;-18
2022/01/05 12:18:08;;;;;;;12.32;8.25;;;11.00;80.40;;;;;;5095520;28;19912;-18
2022/01/05 12:20:39;;;;;;;9.73;6.60;;;11.00;80.00;;;;;;5093861;28;20043;-18
2022/01/05 12:23:18;;;;;;;16.35;10.98;;;11.10;79.80;;;;;;5094862;28;20059;-18
2022/01/05 12:26:07;;;;;;;12.70;8.77;;;11.10;79.90;;;;;;5095147;28;20533;-18
2022/01/05 12:28:36;;;;;;;13.23;8.18;;;11.10;79.90;;;;;;5094945;28;20020;-18
2022/01/05 12:31:04;;;;;;;12.73;8.75;;;11.10;80.00;;;;;;5094993;28;20036;-18
2022/01/05 12:33:50;;;;;;;12.52;8.60;;;11.10;80.00;;;;;;5095313;28;20150;-19
2022/01/05 12:36:35;;;;;;;11.75;7.65;;;11.10;80.00;;;;;;5094735;28;20027;-18
2022/01/05 12:39:07;;;;;;;14.60;9.80;;;11.10;80.10;;;;;;5095282;28;20020;-18
2022/01/05 12:41:43;;;;;;;12.98;9.30;;;11.10;80.40;;;;;;5095207;28;20543;-18
2022/01/05 12:44:16;;;;;;;11.73;8.63;;;11.20;80.30;;;;;;5094707;28;20020;-18
2022/01/05 12:46:49;;;;;;;13.98;9.60;;;11.20;80.30;;;;;;5093681;28;20032;-18
2022/01/05 12:49:17;;;;;;;9.75;6.90;;;11.20;80.30;;;;;;5094756;28;20380;-18
2022/01/05 12:51:49;;;;;;;10.48;7.32;;;11.20;80.20;;;;;;5094626;28;20472;-18
2022/01/05 12:54:21;;;;;;;10.18;7.80;;;11.20;80.10;;;;;;5094841;28;20157;-18